sensor_id;sensor_type;location;lat;lon;timestamp;pressure;altitude;pressure_sealevel;temperature;humidity
13033;BME280;6583;42.632;23.298;2022-10-15T00:00:42;92692.16;;;12.04;89.77
13033;BME280;6583;42.632;23.298;2022-10-15T00:03:09;92693.50;;;12.02;90.66
13033;BME280;6583;42.632;23.298;2022-10-15T00:05:36;92695.09;;;12.03;91.11
13033;BME280;6583;42.632;23.298;2022-10-15T00:08:04;92696.47;;;12.00;91.86
13033;BME280;6583;42.632;23.298;2022-10-15T00:10:31;92688.56;;;11.95;92.03
13033;BME280;6583;42.632;23.298;2022-10-15T00:13:00;92684.16;;;11.91;92.90
13033;BME280;6583;42.632;23.298;2022-10-15T00:15:27;92685.16;;;11.76;94.21
13033;BME280;6583;42.632;23.298;2022-10-15T00:17:54;92691.44;;;11.66;95.15
13033;BME280;6583;42.632;23.298;2022-10-15T00:20:21;92687.44;;;11.50;96.66
13033;BME280;6583;42.632;23.298;2022-10-15T00:22:48;92687.81;;;11.43;97.19
13033;BME280;6583;42.632;23.298;2022-10-15T00:25:15;92684.75;;;11.36;97.96
13033;BME280;6583;42.632;23.298;2022-10-15T00:27:41;92676.78;;;11.36;97.96
13033;BME280;6583;42.632;23.298;2022-10-15T00:30:11;92674.53;;;11.43;97.42
13033;BME280;6583;42.632;23.298;2022-10-15T00:32:37;92682.41;;;11.48;97.34
13033;BME280;6583;42.632;23.298;2022-10-15T00:35:05;92680.19;;;11.55;97.08
13033;BME280;6583;42.632;23.298;2022-10-15T00:37:31;92673.50;;;11.58;97.24
13033;BME280;6583;42.632;23.298;2022-10-15T00:39:58;92672.13;;;11.60;96.79
13033;BME280;6583;42.632;23.298;2022-10-15T00:42:25;92675.97;;;11.54;97.09
13033;BME280;6583;42.632;23.298;2022-10-15T00:44:54;92664.81;;;11.52;97.14
13033;BME280;6583;42.632;23.298;2022-10-15T00:47:34;92669.84;;;11.54;97.33
13033;BME280;6583;42.632;23.298;2022-10-15T00:50:06;92654.50;;;11.51;98.52
13033;BME280;6583;42.632;23.298;2022-10-15T00:52:40;92656.53;;;11.54;97.23
13033;BME280;6583;42.632;23.298;2022-10-15T00:55:11;92652.44;;;11.61;96.26
13033;BME280;6583;42.632;23.298;2022-10-15T00:57:40;92651.88;;;11.64;96.87
13033;BME280;6583;42.632;23.298;2022-10-15T01:00:10;92651.88;;;11.64;96.50
13033;BME280;6583;42.632;23.298;2022-10-15T01:02:40;92655.81;;;11.67;96.06
13033;BME280;6583;42.632;23.298;2022-10-15T01:05:08;92653.84;;;11.73;95.91
13033;BME280;6583;42.632;23.298;2022-10-15T01:07:35;92653.91;;;11.67;96.58
13033;BME280;6583;42.632;23.298;2022-10-15T01:10:05;92652.66;;;11.65;96.99
13033;BME280;6583;42.632;23.298;2022-10-15T01:12:44;92651.47;;;11.71;97.01
13033;BME280;6583;42.632;23.298;2022-10-15T01:15:19;92650.31;;;11.77;95.17
13033;BME280;6583;42.632;23.298;2022-10-15T01:17:53;92645.00;;;11.77;95.18
13033;BME280;6583;42.632;23.298;2022-10-15T01:20:47;92648.91;;;11.80;94.97
13033;BME280;6583;42.632;23.298;2022-10-15T01:23:48;92643.84;;;11.83;94.39
13033;BME280;6583;42.632;23.298;2022-10-15T01:26:47;92643.97;;;11.92;93.41
13033;BME280;6583;42.632;23.298;2022-10-15T01:29:31;92651.34;;;11.95;92.01
13033;BME280;6583;42.632;23.298;2022-10-15T01:32:12;92647.31;;;11.98;90.16
13033;BME280;6583;42.632;23.298;2022-10-15T01:34:48;92649.41;;;12.01;90.31
13033;BME280;6583;42.632;23.298;2022-10-15T01:37:22;92647.50;;;12.01;89.68
13033;BME280;6583;42.632;23.298;2022-10-15T01:39:52;92650.09;;;12.07;88.31
13033;BME280;6583;42.632;23.298;2022-10-15T01:42:26;92658.25;;;12.10;87.11
13033;BME280;6583;42.632;23.298;2022-10-15T01:44:57;92656.56;;;12.14;87.10
13033;BME280;6583;42.632;23.298;2022-10-15T01:47:31;92653.91;;;12.14;86.67
13033;BME280;6583;42.632;23.298;2022-10-15T01:50:00;92659.75;;;12.16;86.39
13033;BME280;6583;42.632;23.298;2022-10-15T01:52:30;92655.31;;;12.12;85.47
13033;BME280;6583;42.632;23.298;2022-10-15T01:54:58;92659.22;;;12.14;86.17
13033;BME280;6583;42.632;23.298;2022-10-15T01:57:26;92654.31;;;12.21;86.42
13033;BME280;6583;42.632;23.298;2022-10-15T01:59:55;92661.41;;;12.26;85.29
13033;BME280;6583;42.632;23.298;2022-10-15T02:02:22;92658.94;;;12.30;85.52
13033;BME280;6583;42.632;23.298;2022-10-15T02:04:50;92662.59;;;12.34;85.47
13033;BME280;6583;42.632;23.298;2022-10-15T02:07:24;92661.41;;;12.40;84.70
13033;BME280;6583;42.632;23.298;2022-10-15T02:09:57;92659.22;;;12.42;85.24
13033;BME280;6583;42.632;23.298;2022-10-15T02:12:35;92658.16;;;12.43;84.57
13033;BME280;6583;42.632;23.298;2022-10-15T02:15:09;92660.53;;;12.45;83.85
13033;BME280;6583;42.632;23.298;2022-10-15T02:17:39;92650.94;;;12.44;83.81
13033;BME280;6583;42.632;23.298;2022-10-15T02:20:13;92654.31;;;12.49;83.54
13033;BME280;6583;42.632;23.298;2022-10-15T02:22:45;92667.81;;;12.53;83.58
13033;BME280;6583;42.632;23.298;2022-10-15T02:25:17;92665.16;;;12.53;83.12
13033;BME280;6583;42.632;23.298;2022-10-15T02:27:47;92660.63;;;12.53;83.07
13033;BME280;6583;42.632;23.298;2022-10-15T02:30:15;92662.19;;;12.54;82.61
13033;BME280;6583;42.632;23.298;2022-10-15T02:32:45;92663.09;;;12.50;83.11
13033;BME280;6583;42.632;23.298;2022-10-15T02:35:16;92667.72;;;12.44;84.21
13033;BME280;6583;42.632;23.298;2022-10-15T02:37:47;92669.50;;;12.35;85.40
13033;BME280;6583;42.632;23.298;2022-10-15T02:40:15;92666.44;;;12.28;85.81
13033;BME280;6583;42.632;23.298;2022-10-15T02:42:42;92661.22;;;12.22;86.53
13033;BME280;6583;42.632;23.298;2022-10-15T02:45:09;92659.03;;;12.25;86.04
13033;BME280;6583;42.632;23.298;2022-10-15T02:47:36;92656.28;;;12.30;85.92
13033;BME280;6583;42.632;23.298;2022-10-15T02:50:02;92662.59;;;12.34;85.21
13033;BME280;6583;42.632;23.298;2022-10-15T02:52:30;92666.72;;;12.40;85.02
13033;BME280;6583;42.632;23.298;2022-10-15T02:54:57;92660.81;;;12.43;84.78
13033;BME280;6583;42.632;23.298;2022-10-15T02:57:24;92657.09;;;12.44;83.89
13033;BME280;6583;42.632;23.298;2022-10-15T02:59:50;92659.94;;;12.48;84.19
13033;BME280;6583;42.632;23.298;2022-10-15T03:02:17;92653.50;;;12.49;84.62
13033;BME280;6583;42.632;23.298;2022-10-15T03:04:44;92661.19;;;12.50;85.62
13033;BME280;6583;42.632;23.298;2022-10-15T03:07:10;92661.19;;;12.50;85.74
13033;BME280;6583;42.632;23.298;2022-10-15T03:09:39;92655.50;;;12.43;86.87
13033;BME280;6583;42.632;23.298;2022-10-15T03:12:06;92656.00;;;12.31;88.41
13033;BME280;6583;42.632;23.298;2022-10-15T03:14:33;92650.00;;;12.26;88.87
13033;BME280;6583;42.632;23.298;2022-10-15T03:16:59;92655.59;;;12.10;90.21
13033;BME280;6583;42.632;23.298;2022-10-15T03:19:26;92652.25;;;12.04;90.22
13033;BME280;6583;42.632;23.298;2022-10-15T03:21:53;92653.03;;;12.05;89.85
13033;BME280;6583;42.632;23.298;2022-10-15T03:24:19;92656.38;;;12.11;89.00
13033;BME280;6583;42.632;23.298;2022-10-15T03:26:47;92666.13;;;12.15;88.79
13033;BME280;6583;42.632;23.298;2022-10-15T03:29:14;92656.28;;;12.16;91.06
13033;BME280;6583;42.632;23.298;2022-10-15T03:31:41;92665.56;;;12.18;89.06
13033;BME280;6583;42.632;23.298;2022-10-15T03:34:07;92658.84;;;12.21;88.57
13033;BME280;6583;42.632;23.298;2022-10-15T03:36:34;92662.81;;;12.23;88.46
13033;BME280;6583;42.632;23.298;2022-10-15T03:39:01;92664.25;;;12.30;87.83
13033;BME280;6583;42.632;23.298;2022-10-15T03:41:28;92653.81;;;12.33;87.23
13033;BME280;6583;42.632;23.298;2022-10-15T03:43:59;92663.59;;;12.38;86.92
13033;BME280;6583;42.632;23.298;2022-10-15T03:46:26;92658.25;;;12.38;86.84
13033;BME280;6583;42.632;23.298;2022-10-15T03:48:52;92663.59;;;12.38;86.23
13033;BME280;6583;42.632;23.298;2022-10-15T03:51:19;92663.59;;;12.38;85.42
13033;BME280;6583;42.632;23.298;2022-10-15T03:53:46;92664.06;;;12.40;86.06
13033;BME280;6583;42.632;23.298;2022-10-15T03:56:12;92665.66;;;12.41;86.01
13033;BME280;6583;42.632;23.298;2022-10-15T03:58:39;92665.66;;;12.41;85.90
13033;BME280;6583;42.632;23.298;2022-10-15T04:01:08;92675.19;;;12.42;84.25
13033;BME280;6583;42.632;23.298;2022-10-15T04:03:35;92675.81;;;12.39;85.15
13033;BME280;6583;42.632;23.298;2022-10-15T04:06:02;92667.84;;;12.39;85.25
13033;BME280;6583;42.632;23.298;2022-10-15T04:08:29;92681.63;;;12.41;84.91
13033;BME280;6583;42.632;23.298;2022-10-15T04:10:56;92681.34;;;12.43;85.07
13033;BME280;6583;42.632;23.298;2022-10-15T04:13:23;92679.16;;;12.45;84.65
13033;BME280;6583;42.632;23.298;2022-10-15T04:15:50;92676.19;;;12.46;83.88
13033;BME280;6583;42.632;23.298;2022-10-15T04:18:18;92678.97;;;12.41;85.93
13033;BME280;6583;42.632;23.298;2022-10-15T04:20:46;92690.28;;;12.33;86.19
13033;BME280;6583;42.632;23.298;2022-10-15T04:23:13;92672.16;;;12.21;86.64
13033;BME280;6583;42.632;23.298;2022-10-15T04:25:40;92682.09;;;12.15;88.44
13033;BME280;6583;42.632;23.298;2022-10-15T04:28:07;92689.59;;;12.13;88.95
13033;BME280;6583;42.632;23.298;2022-10-15T04:30:34;92688.78;;;12.13;88.17
13033;BME280;6583;42.632;23.298;2022-10-15T04:33:00;92687.53;;;12.10;89.28
13033;BME280;6583;42.632;23.298;2022-10-15T04:35:28;92685.44;;;12.07;89.98
13033;BME280;6583;42.632;23.298;2022-10-15T04:37:56;92686.03;;;12.04;89.88
13033;BME280;6583;42.632;23.298;2022-10-15T04:40:23;92685.75;;;11.86;93.50
13033;BME280;6583;42.632;23.298;2022-10-15T04:42:52;92689.53;;;11.85;94.00
13033;BME280;6583;42.632;23.298;2022-10-15T04:45:19;92689.53;;;11.85;93.83
13033;BME280;6583;42.632;23.298;2022-10-15T04:47:46;92695.34;;;11.88;93.45
13033;BME280;6583;42.632;23.298;2022-10-15T04:50:12;92690.38;;;11.81;93.85
13033;BME280;6583;42.632;23.298;2022-10-15T04:52:40;92699.75;;;11.78;94.45
13033;BME280;6583;42.632;23.298;2022-10-15T04:55:07;92695.59;;;11.72;94.82
13033;BME280;6583;42.632;23.298;2022-10-15T04:57:34;92699.88;;;11.54;96.66
13033;BME280;6583;42.632;23.298;2022-10-15T05:00:01;92700.41;;;11.37;97.78
13033;BME280;6583;42.632;23.298;2022-10-15T05:02:28;92697.25;;;11.35;98.08
13033;BME280;6583;42.632;23.298;2022-10-15T05:04:57;92699.38;;;11.33;98.83
13033;BME280;6583;42.632;23.298;2022-10-15T05:07:24;92704.69;;;11.33;98.98
13033;BME280;6583;42.632;23.298;2022-10-15T05:09:52;92708.72;;;11.31;98.88
13033;BME280;6583;42.632;23.298;2022-10-15T05:12:18;92707.13;;;11.29;99.35
13033;BME280;6583;42.632;23.298;2022-10-15T05:14:48;92711.38;;;11.31;99.15
13033;BME280;6583;42.632;23.298;2022-10-15T05:17:15;92713.63;;;11.23;99.87
13033;BME280;6583;42.632;23.298;2022-10-15T05:19:41;92714.41;;;11.24;100.00
13033;BME280;6583;42.632;23.298;2022-10-15T05:22:08;92717.56;;;11.26;100.00
13033;BME280;6583;42.632;23.298;2022-10-15T05:24:35;92713.34;;;11.25;100.00
13033;BME280;6583;42.632;23.298;2022-10-15T05:27:03;92717.06;;;11.24;100.00
13033;BME280;6583;42.632;23.298;2022-10-15T05:29:29;92720.56;;;11.19;100.00
13033;BME280;6583;42.632;23.298;2022-10-15T05:31:56;92721.31;;;11.25;100.00
13033;BME280;6583;42.632;23.298;2022-10-15T05:34:23;92720.28;;;11.21;100.00
13033;BME280;6583;42.632;23.298;2022-10-15T05:36:51;92724.88;;;11.15;100.00
13033;BME280;6583;42.632;23.298;2022-10-15T05:39:18;92725.81;;;11.05;100.00
13033;BME280;6583;42.632;23.298;2022-10-15T05:41:44;92732.16;;;11.09;100.00
13033;BME280;6583;42.632;23.298;2022-10-15T05:44:12;92733.72;;;11.10;100.00
13033;BME280;6583;42.632;23.298;2022-10-15T05:46:39;92742.13;;;11.18;100.00
13033;BME280;6583;42.632;23.298;2022-10-15T05:49:06;92741.25;;;11.22;100.00
13033;BME280;6583;42.632;23.298;2022-10-15T05:51:33;92741.88;;;11.33;100.00
13033;BME280;6583;42.632;23.298;2022-10-15T05:53:59;92742.91;;;11.37;100.00
13033;BME280;6583;42.632;23.298;2022-10-15T05:56:26;92745.69;;;11.46;100.00
13033;BME280;6583;42.632;23.298;2022-10-15T05:58:53;92741.31;;;11.55;99.29
13033;BME280;6583;42.632;23.298;2022-10-15T06:01:21;92740.25;;;11.56;100.00
13033;BME280;6583;42.632;23.298;2022-10-15T06:03:47;92744.75;;;11.56;99.86
13033;BME280;6583;42.632;23.298;2022-10-15T06:06:16;92745.47;;;11.61;100.00
13033;BME280;6583;42.632;23.298;2022-10-15T06:08:43;92748.63;;;11.63;100.00
13033;BME280;6583;42.632;23.298;2022-10-15T06:11:10;92749.81;;;11.71;99.50
13033;BME280;6583;42.632;23.298;2022-10-15T06:13:38;92744.22;;;11.73;100.00
13033;BME280;6583;42.632;23.298;2022-10-15T06:16:05;92755.16;;;11.71;99.46
13033;BME280;6583;42.632;23.298;2022-10-15T06:18:34;92756.25;;;11.70;99.27
13033;BME280;6583;42.632;23.298;2022-10-15T06:21:01;92759.25;;;11.63;99.53
13033;BME280;6583;42.632;23.298;2022-10-15T06:23:27;92750.38;;;11.54;100.00
13033;BME280;6583;42.632;23.298;2022-10-15T06:25:54;92753.53;;;11.56;100.00
13033;BME280;6583;42.632;23.298;2022-10-15T06:28:21;92757.75;;;11.57;100.00
13033;BME280;6583;42.632;23.298;2022-10-15T06:30:48;92760.63;;;11.42;100.00
13033;BME280;6583;42.632;23.298;2022-10-15T06:33:14;92766.69;;;11.28;100.00
13033;BME280;6583;42.632;23.298;2022-10-15T06:35:43;92769.34;;;11.28;100.00
13033;BME280;6583;42.632;23.298;2022-10-15T06:38:09;92771.19;;;11.28;100.00
13033;BME280;6583;42.632;23.298;2022-10-15T06:40:36;92776.28;;;11.24;100.00
13033;BME280;6583;42.632;23.298;2022-10-15T06:43:04;92766.47;;;11.25;100.00
13033;BME280;6583;42.632;23.298;2022-10-15T06:45:32;92768.31;;;11.24;100.00
13033;BME280;6583;42.632;23.298;2022-10-15T06:48:01;92770.75;;;11.21;100.00
13033;BME280;6583;42.632;23.298;2022-10-15T06:50:28;92766.59;;;11.15;100.00
13033;BME280;6583;42.632;23.298;2022-10-15T06:52:56;92772.75;;;11.10;100.00
13033;BME280;6583;42.632;23.298;2022-10-15T06:55:23;92777.78;;;11.12;100.00
13033;BME280;6583;42.632;23.298;2022-10-15T06:57:50;92775.91;;;11.12;100.00
13033;BME280;6583;42.632;23.298;2022-10-15T07:00:16;92774.50;;;11.20;100.00
13033;BME280;6583;42.632;23.298;2022-10-15T07:02:43;92777.66;;;11.22;99.64
13033;BME280;6583;42.632;23.298;2022-10-15T07:05:10;92783.13;;;11.31;98.46
13033;BME280;6583;42.632;23.298;2022-10-15T07:07:37;92781.59;;;11.43;97.93
13033;BME280;6583;42.632;23.298;2022-10-15T07:28:14;92798.66;;;13.02;86.40
13033;BME280;6583;42.632;23.298;2022-10-15T07:30:41;92796.88;;;12.83;87.09
13033;BME280;6583;42.632;23.298;2022-10-15T07:33:08;92797.56;;;12.75;88.76
13033;BME280;6583;42.632;23.298;2022-10-15T07:35:36;92799.34;;;12.66;88.34
13033;BME280;6583;42.632;23.298;2022-10-15T07:38:03;92798.94;;;12.58;89.23
13033;BME280;6583;42.632;23.298;2022-10-15T07:40:30;92800.00;;;12.57;90.10
13033;BME280;6583;42.632;23.298;2022-10-15T07:42:57;92801.59;;;12.58;88.99
13033;BME280;6583;42.632;23.298;2022-10-15T07:45:26;92800.59;;;12.54;88.91
13033;BME280;6583;42.632;23.298;2022-10-15T07:47:53;92798.94;;;12.58;90.11
13033;BME280;6583;42.632;23.298;2022-10-15T07:50:20;92803.16;;;12.59;87.32
13033;BME280;6583;42.632;23.298;2022-10-15T07:52:47;92805.81;;;12.59;89.60
13033;BME280;6583;42.632;23.298;2022-10-15T07:55:14;92801.03;;;12.62;87.53
13033;BME280;6583;42.632;23.298;2022-10-15T07:57:40;92809.50;;;12.64;86.34
13033;BME280;6583;42.632;23.298;2022-10-15T08:00:08;92797.47;;;12.66;88.27
13033;BME280;6583;42.632;23.298;2022-10-15T08:02:36;92810.28;;;12.78;87.98
13033;BME280;6583;42.632;23.298;2022-10-15T08:05:04;92807.53;;;12.83;87.88
13033;BME280;6583;42.632;23.298;2022-10-15T08:07:30;92804.38;;;12.81;86.88
13033;BME280;6583;42.632;23.298;2022-10-15T08:09:57;92808.22;;;12.89;88.14
13033;BME280;6583;42.632;23.298;2022-10-15T08:12:24;92815.81;;;12.95;88.42
13033;BME280;6583;42.632;23.298;2022-10-15T08:14:50;92813.25;;;13.04;85.85
13033;BME280;6583;42.632;23.298;2022-10-15T08:17:17;92811.97;;;13.02;82.93
13033;BME280;6583;42.632;23.298;2022-10-15T08:19:45;92806.16;;;13.00;84.15
13033;BME280;6583;42.632;23.298;2022-10-15T08:22:12;92798.06;;;13.05;85.03
13033;BME280;6583;42.632;23.298;2022-10-15T08:24:38;92801.22;;;13.07;85.94
13033;BME280;6583;42.632;23.298;2022-10-15T08:27:05;92801.81;;;13.04;85.83
13033;BME280;6583;42.632;23.298;2022-10-15T08:29:32;92800.63;;;13.10;87.04
13033;BME280;6583;42.632;23.298;2022-10-15T08:31:58;92798.34;;;13.17;87.57
13033;BME280;6583;42.632;23.298;2022-10-15T08:34:25;92797.34;;;13.27;86.75
13033;BME280;6583;42.632;23.298;2022-10-15T08:36:53;92802.19;;;13.39;85.19
13033;BME280;6583;42.632;23.298;2022-10-15T08:39:20;92795.06;;;13.48;83.63
13033;BME280;6583;42.632;23.298;2022-10-15T08:41:49;92796.03;;;13.52;82.23
13033;BME280;6583;42.632;23.298;2022-10-15T08:44:22;92793.75;;;13.59;80.99
13033;BME280;6583;42.632;23.298;2022-10-15T08:46:52;92794.91;;;13.67;79.05
13033;BME280;6583;42.632;23.298;2022-10-15T08:49:39;92795.59;;;13.72;79.04
13033;BME280;6583;42.632;23.298;2022-10-15T08:52:16;92791.56;;;13.61;77.99
13033;BME280;6583;42.632;23.298;2022-10-15T08:54:45;92789.88;;;13.65;79.04
13033;BME280;6583;42.632;23.298;2022-10-15T08:57:18;92797.09;;;13.65;78.12
13033;BME280;6583;42.632;23.298;2022-10-15T08:59:53;92791.22;;;13.77;78.07
13033;BME280;6583;42.632;23.298;2022-10-15T09:02:25;92788.72;;;13.80;78.79
13033;BME280;6583;42.632;23.298;2022-10-15T09:05:01;92796.81;;;13.89;77.77
13033;BME280;6583;42.632;23.298;2022-10-15T09:07:35;92808.66;;;13.97;79.46
13033;BME280;6583;42.632;23.298;2022-10-15T09:10:14;92804.16;;;14.06;77.82
13033;BME280;6583;42.632;23.298;2022-10-15T09:12:47;92802.94;;;14.12;77.42
13033;BME280;6583;42.632;23.298;2022-10-15T09:15:20;92801.72;;;14.18;76.23
13033;BME280;6583;42.632;23.298;2022-10-15T09:17:50;92812.41;;;14.18;76.01
13033;BME280;6583;42.632;23.298;2022-10-15T09:20:19;92816.16;;;14.17;75.19
13033;BME280;6583;42.632;23.298;2022-10-15T09:22:50;92816.59;;;14.10;74.47
13033;BME280;6583;42.632;23.298;2022-10-15T09:25:18;92817.56;;;14.15;74.96
13033;BME280;6583;42.632;23.298;2022-10-15T09:27:47;92811.91;;;14.16;73.22
13033;BME280;6583;42.632;23.298;2022-10-15T09:30:27;92802.31;;;14.15;73.67
13033;BME280;6583;42.632;23.298;2022-10-15T09:33:02;92802.19;;;14.20;71.76
13033;BME280;6583;42.632;23.298;2022-10-15T09:35:35;92813.72;;;14.29;71.04
13033;BME280;6583;42.632;23.298;2022-10-15T09:38:22;92809.66;;;14.32;69.49
13033;BME280;6583;42.632;23.298;2022-10-15T09:40:59;92802.81;;;14.40;72.02
13033;BME280;6583;42.632;23.298;2022-10-15T09:43:32;92802.28;;;14.38;69.42
13033;BME280;6583;42.632;23.298;2022-10-15T09:46:00;92796.88;;;14.52;68.51
13033;BME280;6583;42.632;23.298;2022-10-15T09:48:31;92801.00;;;14.58;68.86
13033;BME280;6583;42.632;23.298;2022-10-15T09:51:02;92804.38;;;14.72;68.53
13033;BME280;6583;42.632;23.298;2022-10-15T09:53:40;92807.56;;;14.74;69.03
13033;BME280;6583;42.632;23.298;2022-10-15T09:56:12;92804.13;;;14.82;67.98
13033;BME280;6583;42.632;23.298;2022-10-15T09:58:49;92797.88;;;14.87;68.03
13033;BME280;6583;42.632;23.298;2022-10-15T10:01:18;92806.56;;;15.01;67.65
13033;BME280;6583;42.632;23.298;2022-10-15T10:03:50;92815.50;;;14.97;65.89
13033;BME280;6583;42.632;23.298;2022-10-15T10:06:17;92811.91;;;15.01;64.56
13033;BME280;6583;42.632;23.298;2022-10-15T10:08:50;92814.56;;;15.01;63.97
13033;BME280;6583;42.632;23.298;2022-10-15T10:11:17;92794.00;;;15.02;66.58
13033;BME280;6583;42.632;23.298;2022-10-15T10:13:49;92812.69;;;15.02;65.99
13033;BME280;6583;42.632;23.298;2022-10-15T10:16:19;92814.59;;;15.10;67.23
13033;BME280;6583;42.632;23.298;2022-10-15T10:19:05;92817.00;;;15.20;66.22
13033;BME280;6583;42.632;23.298;2022-10-15T10:21:37;92814.00;;;15.22;65.36
13033;BME280;6583;42.632;23.298;2022-10-15T10:24:26;92813.69;;;15.15;63.42
13033;BME280;6583;42.632;23.298;2022-10-15T10:26:55;92808.34;;;15.23;63.65
13033;BME280;6583;42.632;23.298;2022-10-15T10:29:23;92811.94;;;15.19;63.05
13033;BME280;6583;42.632;23.298;2022-10-15T10:31:50;92802.81;;;15.11;62.89
13033;BME280;6583;42.632;23.298;2022-10-15T10:34:24;92802.00;;;15.02;63.59
13033;BME280;6583;42.632;23.298;2022-10-15T10:36:52;92794.13;;;14.97;66.65
13033;BME280;6583;42.632;23.298;2022-10-15T10:39:24;92797.25;;;14.90;68.07
13033;BME280;6583;42.632;23.298;2022-10-15T10:41:53;92804.31;;;14.95;66.29
13033;BME280;6583;42.632;23.298;2022-10-15T10:44:26;92803.25;;;14.96;67.37
13033;BME280;6583;42.632;23.298;2022-10-15T10:47:08;92798.06;;;14.99;65.88
13033;BME280;6583;42.632;23.298;2022-10-15T10:49:37;92802.63;;;14.99;65.99
13033;BME280;6583;42.632;23.298;2022-10-15T10:52:05;92789.75;;;15.01;66.90
13033;BME280;6583;42.632;23.298;2022-10-15T10:54:33;92791.00;;;15.03;64.77
13033;BME280;6583;42.632;23.298;2022-10-15T10:57:00;92797.16;;;15.13;63.55
13033;BME280;6583;42.632;23.298;2022-10-15T10:59:32;92791.22;;;15.16;63.45
13033;BME280;6583;42.632;23.298;2022-10-15T11:02:01;92786.50;;;15.21;63.67
13033;BME280;6583;42.632;23.298;2022-10-15T11:04:31;92782.72;;;15.31;63.06
13033;BME280;6583;42.632;23.298;2022-10-15T11:07:02;92787.31;;;15.39;63.46
13033;BME280;6583;42.632;23.298;2022-10-15T11:09:44;92785.28;;;15.45;62.12
13033;BME280;6583;42.632;23.298;2022-10-15T11:12:25;92790.94;;;15.35;63.05
13033;BME280;6583;42.632;23.298;2022-10-15T11:14:59;92784.91;;;15.20;63.38
13033;BME280;6583;42.632;23.298;2022-10-15T11:17:38;92777.69;;;15.21;63.72
13033;BME280;6583;42.632;23.298;2022-10-15T11:20:17;92785.34;;;15.14;63.67
13033;BME280;6583;42.632;23.298;2022-10-15T11:22:54;92785.69;;;15.12;63.63
13033;BME280;6583;42.632;23.298;2022-10-15T11:25:31;92782.34;;;15.07;63.92
13033;BME280;6583;42.632;23.298;2022-10-15T11:28:13;92785.19;;;15.10;63.68
13033;BME280;6583;42.632;23.298;2022-10-15T11:30:49;92784.72;;;15.08;65.66
13033;BME280;6583;42.632;23.298;2022-10-15T11:33:30;92784.09;;;15.11;64.73
13033;BME280;6583;42.632;23.298;2022-10-15T11:36:07;92786.03;;;15.19;64.87
13033;BME280;6583;42.632;23.298;2022-10-15T11:38:41;92785.56;;;15.26;60.62
13033;BME280;6583;42.632;23.298;2022-10-15T11:41:24;92781.78;;;15.27;60.58
13033;BME280;6583;42.632;23.298;2022-10-15T11:44:03;92779.41;;;15.26;61.18
13033;BME280;6583;42.632;23.298;2022-10-15T11:46:46;92764.81;;;15.23;60.94
13033;BME280;6583;42.632;23.298;2022-10-15T11:49:28;92769.84;;;15.25;61.64
13033;BME280;6583;42.632;23.298;2022-10-15T11:52:11;92767.16;;;15.16;60.46
13033;BME280;6583;42.632;23.298;2022-10-15T11:54:42;92776.41;;;15.18;62.01
13033;BME280;6583;42.632;23.298;2022-10-15T11:57:14;92771.69;;;15.15;64.70
13033;BME280;6583;42.632;23.298;2022-10-15T11:59:46;92778.63;;;15.16;66.16
13033;BME280;6583;42.632;23.298;2022-10-15T12:02:18;92773.88;;;15.13;61.64
13033;BME280;6583;42.632;23.298;2022-10-15T12:04:49;92773.41;;;15.11;62.83
13033;BME280;6583;42.632;23.298;2022-10-15T12:07:20;92782.34;;;15.07;62.09
13033;BME280;6583;42.632;23.298;2022-10-15T12:09:51;92786.31;;;15.09;63.67
13033;BME280;6583;42.632;23.298;2022-10-15T12:12:27;92774.38;;;15.15;64.01
13033;BME280;6583;42.632;23.298;2022-10-15T12:15:06;92784.09;;;15.11;64.86
13033;BME280;6583;42.632;23.298;2022-10-15T12:17:42;92775.50;;;15.23;67.22
13033;BME280;6583;42.632;23.298;2022-10-15T12:20:14;92782.56;;;15.28;66.24
13033;BME280;6583;42.632;23.298;2022-10-15T12:22:54;92789.97;;;15.31;64.67
13033;BME280;6583;42.632;23.298;2022-10-15T12:25:44;92778.47;;;15.13;61.12
13033;BME280;6583;42.632;23.298;2022-10-15T12:28:16;92786.81;;;15.20;64.20
13033;BME280;6583;42.632;23.298;2022-10-15T12:30:53;92785.38;;;15.22;65.68
13033;BME280;6583;42.632;23.298;2022-10-15T12:33:25;92781.31;;;15.25;66.30
13033;BME280;6583;42.632;23.298;2022-10-15T12:35:56;92782.22;;;15.20;61.89
13033;BME280;6583;42.632;23.298;2022-10-15T12:38:28;92772.34;;;15.21;64.65
13033;BME280;6583;42.632;23.298;2022-10-15T12:41:05;92778.78;;;15.20;63.21
13033;BME280;6583;42.632;23.298;2022-10-15T12:43:37;92781.28;;;15.08;61.60
13033;BME280;6583;42.632;23.298;2022-10-15T12:46:06;92783.03;;;15.12;61.02
13033;BME280;6583;42.632;23.298;2022-10-15T12:48:37;92776.38;;;15.01;62.60
13033;BME280;6583;42.632;23.298;2022-10-15T12:51:28;92770.22;;;14.92;62.94
13033;BME280;6583;42.632;23.298;2022-10-15T12:53:55;92768.03;;;14.94;63.83
13033;BME280;6583;42.632;23.298;2022-10-15T12:56:24;92775.09;;;14.98;65.28
13033;BME280;6583;42.632;23.298;2022-10-15T12:59:01;92772.13;;;15.00;65.65
13033;BME280;6583;42.632;23.298;2022-10-15T13:01:49;92769.00;;;15.07;64.92
13033;BME280;6583;42.632;23.298;2022-10-15T13:04:17;92769.59;;;14.95;63.46
13033;BME280;6583;42.632;23.298;2022-10-15T13:06:45;92778.56;;;14.99;62.55
13033;BME280;6583;42.632;23.298;2022-10-15T13:09:25;92774.94;;;15.03;63.67
13033;BME280;6583;42.632;23.298;2022-10-15T13:11:55;92782.19;;;15.03;62.85
13033;BME280;6583;42.632;23.298;2022-10-15T13:14:29;92777.19;;;15.10;62.96
13033;BME280;6583;42.632;23.298;2022-10-15T13:16:56;92778.00;;;15.11;62.70
13033;BME280;6583;42.632;23.298;2022-10-15T13:19:27;92768.69;;;15.08;63.79
13033;BME280;6583;42.632;23.298;2022-10-15T13:21:56;92765.41;;;15.11;64.18
13033;BME280;6583;42.632;23.298;2022-10-15T13:24:25;92750.59;;;15.05;65.44
13033;BME280;6583;42.632;23.298;2022-10-15T13:26:53;92760.34;;;15.01;66.37
13033;BME280;6583;42.632;23.298;2022-10-15T13:29:21;92763.31;;;14.99;65.56
13033;BME280;6583;42.632;23.298;2022-10-15T13:31:50;92768.97;;;14.98;65.50
13033;BME280;6583;42.632;23.298;2022-10-15T13:34:24;92763.31;;;14.91;66.09